Last 24 Hours

Coyote Canyon

10 Minute Data | America/Los_Angeles
as of 5/5/26 10:17 PM PDT
Date & Time Temp (°F) Dew Pt (°F) RH (%) Wind Spd (mph) Wind Dir (°) Wind Gust (mph) Wind Gst Dir (°) Daily Max Temp (°F) Daily Min Temp (°F)
5/5/26 - 2210 42.5 39.4 89 16.5 SE | 124 23.0 ESE | 121 54.8 41.2
5/5/26 - 2200 42.4 39.2 88 15.5 SE | 124 22.7 SE | 124 54.8 41.2
5/5/26 - 2150 42.5 39.4 88 14.5 SE | 127 21.1 ESE | 120 54.8 41.2
5/5/26 - 2140 42.7 39.4 88 17.6 SE | 128 24.6 SE | 125 54.8 41.2
5/5/26 - 2130 42.9 39.3 87 18.5 SE | 128 25.3 SE | 125 54.8 41.2
5/5/26 - 2120 43.0 39.6 88 17.7 SE | 131 25.2 ESE | 109 54.8 41.2
5/5/26 - 2110 43.2 39.9 88 19.0 SE | 129 27.8 ESE | 109 54.8 41.2
5/5/26 - 2100 43.2 40.7 91 17.8 SE | 131 24.0 SE | 127 54.8 41.2
5/5/26 - 2050 43.3 41.1 92 18.2 SE | 131 25.6 SE | 127 54.8 41.2
5/5/26 - 2040 43.5 41.1 91 17.9 SE | 138 26.6 SE | 134 54.8 41.2
5/5/26 - 2030 43.7 41.3 91 19.4 SE | 132 26.5 SE | 126 54.8 41.2
5/5/26 - 2020 44.0 41.5 91 16.3 SE | 128 23.1 ESE | 123 54.8 41.2
5/5/26 - 2010 44.2 41.6 91 17.0 SE | 126 23.8 SE | 124 54.8 41.2
5/5/26 - 2000 44.5 41.9 90 17.5 ESE | 122 23.9 SE | 127 54.8 41.2
5/5/26 - 1950 44.9 42.2 90 17.5 SE | 131 25.4 WNW | 283 54.8 41.2
5/5/26 - 1940 45.2 42.1 89 18.5 S | 172 26.9 W | 268 54.8 41.2
5/5/26 - 1930 45.4 42.2 88 19.9 SE | 132 28.4 SE | 124 54.8 41.2
5/5/26 - 1920 46.0 42.2 86 18.2 SE | 134 27.7 SE | 128 54.8 41.2
5/5/26 - 1910 46.3 41.8 84 17.0 SE | 133 25.1 SE | 128 54.8 41.2
5/5/26 - 1900 46.5 41.5 82 20.2 SE | 132 27.8 ESE | 117 54.8 41.2
5/5/26 - 1850 47.2 41.0 79 18.4 SE | 134 25.8 ESE | 122 54.8 41.2
5/5/26 - 1840 48.1 40.3 74 20.2 SE | 133 26.7 SE | 138 54.8 41.2
5/5/26 - 1830 48.5 40.1 73 21.3 SE | 132 27.4 ESE | 102 54.8 41.2
5/5/26 - 1820 48.8 39.9 71 21.9 SSE | 150 29.2 SSE | 167 54.8 41.2
5/5/26 - 1810 49.4 39.8 69 22.1 SE | 130 29.4 ESE | 103 54.8 41.2
5/5/26 - 1800 49.7 39.3 67 21.4 SE | 134 31.2 ESE | 123 54.8 41.2
5/5/26 - 1750 49.8 39.4 67 22.8 SE | 129 29.8 E | 94 54.8 41.2
5/5/26 - 1740 50.3 39.3 66 22.8 ESE | 119 30.8 E | 91 54.8 41.2
5/5/26 - 1730 50.8 39.4 65 20.5 SE | 126 31.2 ESE | 102 54.8 41.2
5/5/26 - 1720 50.2 39.4 66 22.7 SE | 129 31.2 WNW | 299 54.8 41.2
5/5/26 - 1710 50.0 39.6 67 24.0 WSW | 251 32.4 W | 263 54.8 41.2
5/5/26 - 1700 50.6 39.6 66 23.3 SW | 226 33.3 WNW | 286 54.8 41.2
5/5/26 - 1650 49.8 39.5 67 23.8 W | 272 32.6 WNW | 283 54.8 41.2
5/5/26 - 1640 50.0 39.3 67 23.1 WSW | 237 33.2 WNW | 285 54.8 41.2
5/5/26 - 1630 50.4 39.5 66 21.7 W | 281 30.5 NW | 309 54.8 41.2
5/5/26 - 1620 50.7 38.7 63 19.8 S | 173 27.4 SE | 126 54.8 41.2
5/5/26 - 1610 51.6 37.7 59 20.1 SE | 138 29.4 NW | 305 54.8 41.2
5/5/26 - 1600 52.6 37.7 57 21.2 W | 271 29.7 WNW | 291 54.8 41.2
5/5/26 - 1550 53.5 37.1 54 16.9 SE | 128 27.0 ESE | 120 54.8 41.2
5/5/26 - 1540 52.1 36.8 56 19.0 SE | 128 30.0 ESE | 109 53.7 41.2
5/5/26 - 1530 52.7 36.6 54 17.1 SE | 131 27.0 SE | 133 53.7 41.2
5/5/26 - 1520 51.9 36.1 55 19.4 SE | 133 29.3 ESE | 105 53.0 41.2
5/5/26 - 1510 51.5 35.5 54 20.9 SE | 141 27.4 SSE | 166 53.0 41.2
5/5/26 - 1500 51.0 35.8 56 21.3 WSW | 244 29.7 W | 269 53.0 41.2
5/5/26 - 1450 51.4 36.0 55 19.1 SE | 142 27.8 SE | 139 53.0 41.2
5/5/26 - 1440 51.2 36.2 56 19.5 SW | 218 31.6 W | 264 53.0 41.2
5/5/26 - 1430 51.2 36.8 58 20.6 SE | 144 29.8 ESE | 116 53.0 41.2
5/5/26 - 1420 51.0 38.0 61 18.8 S | 184 28.4 W | 270 53.0 41.2
5/5/26 - 1410 50.9 38.1 62 19.3 W | 278 28.4 WNW | 285 53.0 41.2
5/5/26 - 1400 51.1 38.1 61 18.9 SSE | 167 32.0 WSW | 253 53.0 41.2
5/5/26 - 1350 50.4 38.0 62 20.5 SSW | 209 31.9 WNW | 289 53.0 41.2
5/5/26 - 1340 51.7 38.4 60 18.3 SSW | 196 27.4 W | 279 53.0 41.2
5/5/26 - 1330 50.0 37.2 61 19.8 SSW | 208 30.1 W | 271 51.9 41.2
5/5/26 - 1320 50.6 36.8 59 20.0 WSW | 247 30.1 W | 268 51.9 41.2
5/5/26 - 1310 50.3 35.1 56 19.9 SSE | 163 28.1 SSE | 167 51.6 41.2
5/5/26 - 1300 50.4 36.4 58 19.3 SE | 133 27.8 SE | 144 51.1 41.2
5/5/26 - 1250 49.2 37.6 64 19.3 SE | 135 28.4 SSW | 200 50.2 41.2
5/5/26 - 1240 49.0 37.9 65 20.4 SSE | 148 29.2 ESE | 117 50.2 41.2
5/5/26 - 1230 49.6 37.9 64 21.5 SSW | 207 31.2 WSW | 248 50.2 41.2
5/5/26 - 1220 49.2 37.4 63 23.2 SSW | 206 34.2 SSW | 192 50.2 41.2
5/5/26 - 1210 48.8 38.2 67 19.2 W | 268 28.6 S | 178 49.7 41.2
5/5/26 - 1200 47.6 39.4 73 20.3 WSW | 258 27.9 S | 177 48.5 41.2
5/5/26 - 1150 47.1 40.1 77 19.8 W | 277 28.1 SW | 236 47.9 41.2
5/5/26 - 1140 46.8 40.5 79 21.3 WNW | 282 29.1 WNW | 291 47.9 41.2
5/5/26 - 1130 47.0 40.8 79 20.4 W | 276 28.4 W | 271 47.9 41.2
5/5/26 - 1120 46.8 41.3 81 19.2 WSW | 256 28.1 W | 260 47.9 41.2
5/5/26 - 1110 46.1 40.9 82 19.6 W | 263 28.0 WNW | 287 47.9 41.2
5/5/26 - 1100 47.3 41.6 80 17.1 WSW | 257 27.3 W | 264 47.9 41.2
5/5/26 - 1050 45.6 40.6 83 20.5 WSW | 251 28.4 WSW | 255 46.4 41.2
5/5/26 - 1040 45.5 40.6 83 18.2 WSW | 245 25.4 WSW | 249 46.4 41.2
5/5/26 - 1030 44.6 40.1 84 19.3 WSW | 254 26.7 WSW | 246 45.0 41.2
5/5/26 - 1020 44.8 41.3 87 19.0 WSW | 246 26.7 SSW | 200 45.0 41.2
5/5/26 - 1010 44.4 41.3 89 15.6 WSW | 241 24.8 WSW | 243 44.9 41.2
5/5/26 - 1000 43.8 40.8 89 18.2 WSW | 251 27.6 WSW | 251 44.8 41.2
5/5/26 - 0950 43.8 41.7 92 19.1 WSW | 250 27.0 WSW | 242 44.8 41.2
5/5/26 - 0940 43.8 42.1 94 21.6 WSW | 242 29.7 WSW | 244 44.8 41.2
5/5/26 - 0930 44.0 42.6 95 20.1 WSW | 238 28.7 SW | 216 44.8 41.2
5/5/26 - 0920 43.2 42.4 97 21.2 SW | 221 29.4 SW | 216 44.6 41.2
5/5/26 - 0910 43.5 42.8 97 21.9 SW | 227 28.8 SW | 219 44.6 41.2
5/5/26 - 0900 43.8 43.7 99 18.5 SW | 235 27.6 SW | 232 44.6 41.2
5/5/26 - 0850 43.2 43.2 100 18.1 WSW | 242 27.1 WSW | 239 43.8 41.2
5/5/26 - 0840 43.0 43.0 100 20.8 WSW | 251 29.1 WSW | 255 43.8 41.2
5/5/26 - 0830 43.3 43.3 100 19.4 WSW | 253 26.4 WSW | 255 43.8 41.2
5/5/26 - 0820 43.2 43.2 100 17.4 WSW | 247 24.3 WSW | 256 43.8 41.2
5/5/26 - 0810 42.9 42.9 100 19.2 WSW | 250 27.0 WSW | 243 43.3 41.2
5/5/26 - 0800 42.9 42.9 100 18.4 WSW | 253 24.9 WSW | 254 43.3 41.2
5/5/26 - 0750 42.6 42.6 100 18.1 WSW | 246 25.6 WSW | 248 43.3 41.2
5/5/26 - 0740 43.1 43.1 100 15.1 WSW | 254 22.7 WSW | 248 43.3 41.2
5/5/26 - 0730 43.1 43.1 100 14.2 WSW | 253 21.7 WSW | 249 43.3 41.2
5/5/26 - 0720 42.6 42.6 100 16.4 WSW | 256 24.0 WSW | 251 42.9 41.2
5/5/26 - 0710 42.5 42.5 100 18.8 WSW | 254 24.8 WSW | 253 42.8 41.2
5/5/26 - 0700 42.4 42.4 100 16.5 WSW | 251 24.9 WSW | 250 42.8 41.2
5/5/26 - 0650 42.2 42.2 100 13.7 WSW | 254 18.6 W | 260 42.8 41.2
5/5/26 - 0640 42.6 42.6 100 13.7 WSW | 251 20.8 WSW | 256 42.8 41.2
5/5/26 - 0630 42.6 42.6 100 15.7 WSW | 246 22.2 WSW | 251 42.8 41.2
5/5/26 - 0620 42.3 42.3 100 16.1 WSW | 246 21.5 WSW | 241 42.8 41.2
5/5/26 - 0610 42.3 42.2 100 17.8 WSW | 242 24.7 WSW | 241 42.8 41.2
5/5/26 - 0600 42.6 42.6 100 17.0 SW | 232 23.4 WSW | 251 42.8 41.2
5/5/26 - 0550 42.7 42.7 100 17.7 WSW | 242 23.5 SW | 236 42.8 41.2
5/5/26 - 0540 42.8 42.8 100 16.8 WSW | 243 24.8 SW | 236 42.8 41.2
5/5/26 - 0530 42.6 42.6 100 16.6 WSW | 246 22.9 SW | 232 42.8 41.2
5/5/26 - 0520 42.5 42.5 100 18.1 WSW | 249 26.5 WSW | 241 42.5 41.2
5/5/26 - 0510 42.4 42.4 100 20.2 WSW | 252 26.2 WSW | 251 42.5 41.2
5/5/26 - 0500 42.4 42.4 100 19.1 WSW | 256 25.4 WNW | 295 42.4 41.2
5/5/26 - 0450 42.4 42.4 100 18.2 WSW | 249 25.3 W | 266 42.4 41.2
5/5/26 - 0440 42.2 42.2 100 14.8 WSW | 244 20.2 WSW | 252 42.3 41.2
5/5/26 - 0430 42.0 42.0 100 17.3 WSW | 250 24.2 W | 264 42.3 41.2
5/5/26 - 0420 41.9 41.9 100 16.4 WSW | 256 24.0 W | 271 42.3 41.2
5/5/26 - 0410 41.9 41.9 100 19.8 WSW | 251 28.6 WSW | 252 42.3 41.2
5/5/26 - 0400 41.7 41.7 100 18.9 W | 271 29.9 W | 270 42.3 41.2
5/5/26 - 0350 41.4 41.4 100 20.7 WNW | 288 28.4 W | 278 42.3 41.2
5/5/26 - 0340 41.3 41.3 100 17.9 W | 270 25.0 W | 274 42.3 41.2
5/5/26 - 0330 41.4 41.4 100 18.3 W | 268 24.9 W | 273 42.3 41.3
5/5/26 - 0320 41.4 41.4 100 21.9 WSW | 258 27.2 W | 262 42.3 41.3
5/5/26 - 0310 41.5 41.4 100 20.7 WSW | 252 28.1 WSW | 248 42.3 41.3
5/5/26 - 0300 41.4 41.4 100 19.4 WSW | 246 24.6 WSW | 254 42.3 41.4
5/5/26 - 0250 41.5 41.5 100 19.1 WSW | 254 24.9 W | 263 42.3 41.4
5/5/26 - 0240 41.6 41.6 100 18.8 WSW | 245 25.1 WSW | 244 42.3 41.6
5/5/26 - 0230 41.7 41.7 100 21.2 WSW | 250 29.2 WSW | 248 42.3 41.6
5/5/26 - 0220 41.9 41.9 100 22.4 WSW | 255 30.2 W | 262 42.3 41.8
5/5/26 - 0210 42.0 42.0 100 20.1 W | 273 27.8 W | 272 42.3 41.8
5/5/26 - 0200 42.0 42.0 100 18.9 W | 277 25.7 W | 276 42.3 41.8
5/5/26 - 0150 42.0 42.0 100 17.6 W | 278 24.9 W | 277 42.3 41.8
5/5/26 - 0140 41.9 41.9 100 18.7 W | 272 25.0 W | 274 42.3 41.8
5/5/26 - 0130 41.9 41.9 100 18.7 WSW | 255 25.1 WSW | 238 42.3 41.8
5/5/26 - 0120 42.1 42.1 100 17.4 WSW | 242 24.3 WSW | 237 42.3 41.9
5/5/26 - 0110 42.2 42.2 100 18.7 WSW | 250 25.7 WSW | 251 42.3 42.2
5/5/26 - 0100 42.2 42.2 100 16.7 WSW | 250 23.5 WSW | 241 53.6 41.8
5/5/26 - 0050 42.1 42.1 100 16.5 WSW | 255 22.1 WSW | 250 53.6 41.8
5/5/26 - 0040 41.9 41.8 100 17.7 W | 280 23.9 W | 281 53.6 41.8
5/5/26 - 0030 41.9 41.5 98 17.8 W | 280 23.1 W | 275 53.6 41.8
5/5/26 - 0020 42.0 40.9 96 20.7 WNW | 283 27.8 WNW | 284 53.6 41.9
5/5/26 - 0010 42.5 40.6 93 19.4 WNW | 288 26.6 W | 281 53.6 41.9
5/5/26 - 0000 42.9 40.9 92 18.8 WNW | 288 26.4 WNW | 285 53.6 41.9
5/4/26 - 2350 43.0 40.8 92 18.9 WNW | 284 25.4 WNW | 284 53.6 41.9
5/4/26 - 2340 43.2 40.6 91 17.1 W | 270 25.4 W | 266 53.6 41.9
5/4/26 - 2330 43.1 40.6 91 18.2 W | 271 25.4 W | 266 53.6 41.9
5/4/26 - 2320 43.1 41.0 92 16.5 W | 271 25.6 W | 273 53.6 41.9
5/4/26 - 2310 43.1 41.1 92 18.2 W | 276 25.5 W | 279 53.6 41.9
5/4/26 - 2300 43.0 41.2 93 19.5 W | 277 25.6 W | 266 53.6 41.9
5/4/26 - 2250 43.1 41.2 93 19.4 W | 275 25.7 W | 274 53.6 41.9
5/4/26 - 2240 43.1 41.0 92 19.3 W | 272 26.5 W | 281 53.6 41.9
5/4/26 - 2230 43.1 40.4 90 21.6 W | 265 29.7 W | 270 53.6 41.9
5/4/26 - 2220 43.2 40.6 90 20.6 W | 266 29.0 W | 266 53.6 41.9
5/4/26 - 2210 43.2 40.9 91 20.4 W | 268 28.6 W | 265 53.6 41.9
Max 53.5 43.7 100 24.0 - 34.2 - 54.8 42.2
Avg 45.3 40.6 85 19.0 - 26.9 - - -
Min 41.3 35.1 54 13.7 - 18.6 - 42.3 41.2